This is the latest recevied weather packets stored in our database for station/object KI7JYE. If no packets are shown the sender has not sent any weather packets the latest 10 day(s).
| Time | Temp. | Humidity | Pressure | Rain* | Wind** | Luminosity | Snow |
|---|---|---|---|---|---|---|---|
| 1777931939 | 23.33° C | 58% | 1010.8 hPa | 0 mm | - | 587 W/m² | - |
| 1777931635 | 23.33° C | 59% | 1010.8 hPa | 0 mm | - | 595 W/m² | - |
| 1777931332 | 23.33° C | 61% | 1010.8 hPa | 0 mm | - | 584 W/m² | - |
| 1777931029 | 23.33° C | 61% | 1011 hPa | 0 mm | - | 531 W/m² | - |
| 1777930725 | 22.78° C | 62% | 1011.1 hPa | 0 mm | - | 456 W/m² | - |
| 1777930421 | 20.56° C | 67% | 1011.1 hPa | 0 mm | - | 529 W/m² | - |
| 1777930119 | 21.67° C | 64% | 1011.2 hPa | 0 mm | - | 572 W/m² | - |
| 1777929815 | 22.78° C | 61% | 1011.1 hPa | 0 mm | - | 557 W/m² | - |
| 1777929513 | 22.78° C | 61% | 1011.4 hPa | 0 mm | - | 616 W/m² | - |
| 1777929208 | 21.67° C | 62% | 1011.3 hPa | 0 mm | - | 603 W/m² | - |
| 1777928906 | 21.67° C | 65% | 1011.7 hPa | 0 mm | - | 593 W/m² | - |
| 1777928603 | 20.56° C | 65% | 1011.5 hPa | 0 mm | - | 605 W/m² | - |
| 1777928300 | 21.11° C | 64% | 1011.7 hPa | 0 mm | - | 595 W/m² | - |
| 1777927997 | 20° C | 65% | 1011.8 hPa | 0 mm | - | 609 W/m² | - |
| 1777927696 | 20° C | 69% | 1011.9 hPa | 0 mm | - | 623 W/m² | - |
| 1777927394 | 19.44° C | 69% | 1011.9 hPa | 0 mm | - | 598 W/m² | - |
| 1777927093 | 20° C | 67% | 1011.8 hPa | 0 mm | - | 603 W/m² | - |
| 1777926789 | 19.44° C | 67% | 1012.1 hPa | 0 mm | - | 620 W/m² | - |
| 1777926484 | 19.44° C | 67% | 1012 hPa | 0 mm | - | 645 W/m² | - |
| 1777926182 | 18.89° C | 68% | 1012 hPa | 0 mm | - | 656 W/m² | - |
| 1777925879 | 20.56° C | 66% | 1012.4 hPa | 0 mm | - | 620 W/m² | - |
| 1777925576 | 19.44° C | 67% | 1012.3 hPa | 0 mm | - | 625 W/m² | - |
| 1777925274 | 19.44° C | 67% | 1012.3 hPa | 0 mm | - | 621 W/m² | - |
| 1777924969 | 20° C | 67% | 1012.4 hPa | 0 mm | - | 639 W/m² | - |
| 1777924666 | 18.89° C | 69% | 1012.3 hPa | 0 mm | - | 584 W/m² | - |
* Rain latest hour (hover to see other rain measurements)
** Current wind speed in m/s (hover to see current wind gust speed)